OOCL Berlin — VRLN5 — position and weather

sailwx.info

Track history (hours):
 
Tides and Currents Weather Stations Pressure Air Temp Water Temp Dewpoint Dewpoint Depression Visibility Wind Speed Wind Dir Waves Ship Positions

OOCL Berlin

Last reported at 2017-Nov-24 15:44 UTC. Time now 2017-Nov-24 18:19 UTC.
Position N 30°37' E 122°05'.

Length 366 m; draft 11.3 m.

Type: Cargo ship. MMSI: 477203100.

Date/timePositionNaut miles runAvg speedWind from/ knotsBaromVisibWave heightAir tempDewpointWater temp
2017-Nov-24 15:44N 30°37' E 122°05'0 0.0
2017-Nov-24 01:11N 30°37' E 122°05'0 0.0
2017-Nov-24 00:11N 30°37' E 122°05'0 0.0
2017-Nov-23 23:53N 30°37' E 122°05'0 0.0
2017-Nov-23 23:30N 30°37' E 122°05'1 1.3
2017-Nov-23 23:00N 30°36' E 122°04'1 1.3
2017-Nov-23 22:30N 30°36' E 122°05'3 5.6
2017-Nov-23 22:00N 30°35' E 122°08'612.6
2017-Nov-23 21:30N 30°34' E 122°15'3 4.7
2017-Nov-23 20:51N 30°33' E 122°18'4 8.7
2017-Nov-23 20:23N 30°32' E 122°23'410.3
2017-Nov-23 20:00N 30°31' E 122°27'  
2017-Nov-17 19:28N 22°18' E 115°45'917.9
2017-Nov-17 18:56N 22°18' E 115°35'1117.8
2017-Nov-17 18:18N 22°17' E 115°22'517.4
2017-Nov-17 18:00N 22°17' E 115°17'917.6
2017-Nov-17 17:30N 22°17' E 115°07'917.6
2017-Nov-17 17:01N 22°16' E 114°58'917.3
2017-Nov-17 16:30N 22°17' E 114°49'917.7
2017-Nov-17 16:01N 22°18' E 114°39'917.1
2017-Nov-17 15:31N 22°20' E 114°30'815.6
2017-Nov-17 15:01N 22°27' E 114°28'4 8.9
2017-Nov-17 14:31N 22°30' E 114°25'713.5
2017-Nov-17 14:00N 22°34' E 114°18'1 2.5
2017-Nov-17 13:29N 22°34' E 114°17'0 0.0
2017-Nov-17 12:59N 22°34' E 114°17'0 0.0
2017-Nov-17 12:29N 22°34' E 114°17'0 0.0
2017-Nov-17 11:59N 22°34' E 114°17'0 0.0
2017-Nov-17 11:29N 22°34' E 114°17'0 0.0
2017-Nov-17 10:59N 22°34' E 114°17'0 0.1
2017-Nov-17 10:29N 22°34' E 114°17'0 0.1
2017-Nov-17 09:59N 22°34' E 114°17'0 0.0
2017-Nov-17 09:29N 22°34' E 114°17'0 0.0
2017-Nov-17 08:59N 22°34' E 114°17'0 0.0
2017-Nov-17 08:29N 22°34' E 114°17'0 0.0
2017-Nov-17 07:59N 22°34' E 114°17'0 0.1
2017-Nov-17 07:29N 22°34' E 114°17'0 0.1
2017-Nov-17 06:59N 22°34' E 114°17'0 0.0
2017-Nov-17 06:29N 22°34' E 114°17'0 0.0
2017-Nov-17 05:59N 22°34' E 114°17'0 0.0
2017-Nov-17 05:26N 22°34' E 114°17'0 0.0
2017-Nov-17 04:59N 22°34' E 114°17'0 0.0
2017-Nov-17 04:29N 22°34' E 114°17'0 0.0
2017-Nov-17 03:59N 22°34' E 114°17'0 0.0
2017-Nov-17 03:29N 22°34' E 114°17'0 0.0
2017-Nov-17 02:59N 22°34' E 114°17'0 0.0
2017-Nov-17 02:29N 22°34' E 114°17'0 0.0
2017-Nov-17 01:59N 22°34' E 114°17'0 0.0
2017-Nov-17 01:29N 22°34' E 114°17'0 0.0
2017-Nov-17 00:59N 22°34' E 114°17'0 0.0
2017-Nov-17 00:29N 22°34' E 114°17'0 0.0
2017-Nov-16 23:59N 22°34' E 114°17'0 0.0
2017-Nov-16 23:29N 22°34' E 114°17'0 0.0
2017-Nov-16 22:59N 22°34' E 114°17'0 0.0
2017-Nov-16 22:29N 22°34' E 114°17'0 0.0
2017-Nov-16 21:59N 22°34' E 114°17'0 0.0
2017-Nov-16 21:29N 22°34' E 114°17'0 0.0
2017-Nov-16 20:59N 22°34' E 114°17'0 0.0
2017-Nov-16 20:29N 22°34' E 114°17'0 0.0
2017-Nov-16 19:59N 22°34' E 114°17'0 0.0
2017-Nov-16 19:29N 22°34' E 114°17'0 0.0
2017-Nov-16 18:59N 22°34' E 114°17'0 0.0
2017-Nov-16 18:29N 22°34' E 114°17'0 0.0
2017-Nov-16 17:59N 22°34' E 114°17'0 0.0
2017-Nov-16 17:29N 22°34' E 114°17'0 0.0
2017-Nov-16 16:59N 22°34' E 114°17'0 0.0
2017-Nov-16 16:29N 22°34' E 114°17'0 0.0
2017-Nov-16 15:59N 22°34' E 114°17'0 0.0
2017-Nov-16 15:29N 22°34' E 114°17'0 0.0
2017-Nov-16 14:59N 22°34' E 114°17'0 0.0
2017-Nov-16 14:29N 22°34' E 114°17'0 0.0
2017-Nov-16 13:59N 22°34' E 114°17'0 0.0
2017-Nov-16 13:29N 22°34' E 114°17'0 0.0
2017-Nov-16 12:59N 22°34' E 114°17'0 0.0
2017-Nov-16 12:26N 22°34' E 114°17'0 0.0
2017-Nov-16 11:59N 22°34' E 114°17'0 0.0
2017-Nov-16 11:29N 22°34' E 114°17'0 0.0
2017-Nov-16 10:59N 22°34' E 114°17'0 0.0
2017-Nov-16 10:29N 22°34' E 114°17'0 0.0
2017-Nov-16 09:59N 22°34' E 114°17'0 0.0
2017-Nov-16 09:29N 22°34' E 114°17'0 0.0
2017-Nov-16 08:59N 22°34' E 114°17'0 0.0
2017-Nov-16 08:30N 22°34' E 114°17'0 0.8
2017-Nov-16 08:01N 22°34' E 114°17'4 8.7
2017-Nov-16 07:31N 22°33' E 114°22'612.4
2017-Nov-16 07:00N 22°29' E 114°26'510.6
2017-Nov-16 06:30N 22°23' E 114°27'5 9.5
2017-Nov-16 06:00N 22°18' E 114°27'611.0
2017-Nov-16 05:30N 22°13' E 114°25'612.7
2017-Nov-16 05:00N 22°08' E 114°22'612.0
2017-Nov-16 04:30N 22°07' E 114°15'612.4
2017-Nov-16 04:00N 22°12' E 114°11'510.2
2017-Nov-16 03:30N 22°15' E 114°07'5 8.9
2017-Nov-16 02:57N 22°20' E 114°07'1 0.0
2017-Nov-15 01:43N 22°21' E 114°07'0 0.0
2017-Nov-15 01:24N 22°21' E 114°07'1 1.2
2017-Nov-15 00:54N 22°20' E 114°07'2 5.3
2017-Nov-15 00:28N 22°18' E 114°06'613.1
2017-Nov-15 00:00N 22°13' E 114°10'4 7.6
2017-Nov-14 23:29N 22°10' E 114°12'4 8.6
2017-Nov-14 23:00N 22°08' E 114°16'5 9.5
2017-Nov-14 22:30N 22°08' E 114°21'5 9.5
2017-Nov-14 22:00N 22°04' E 114°24'612.9
2017-Nov-14 21:30N 21°58' E 114°25'713.4
2017-Nov-14 21:00N 21°52' E 114°21'713.5
2017-Nov-14 20:30N 21°46' E 114°18'  
Track history (hours):
 
Tides and Currents Weather Stations Pressure Air Temp Water Temp Dewpoint Dewpoint Depression Visibility Wind Speed Wind Dir Waves Ship Positions

OOCL Berlin

Last reported at 2017-Nov-24 15:44 UTC. Time now 2017-Nov-24 18:19 UTC.
Position N 30°37' E 122°05'.

Length 366 m; draft 11.3 m.

Type: Cargo ship. MMSI: 477203100.

Date/timePositionNaut miles runAvg speedWind from/ knotsBaromVisibWave heightAir tempDewpointWater temp
2017-Nov-24 15:44N 30°37' E 122°05'0 0.0
2017-Nov-24 01:11N 30°37' E 122°05'0 0.0
2017-Nov-24 00:11N 30°37' E 122°05'0 0.0
2017-Nov-23 23:53N 30°37' E 122°05'0 0.0
2017-Nov-23 23:30N 30°37' E 122°05'1 1.3
2017-Nov-23 23:00N 30°36' E 122°04'1 1.3
2017-Nov-23 22:30N 30°36' E 122°05'3 5.6
2017-Nov-23 22:00N 30°35' E 122°08'612.6
2017-Nov-23 21:30N 30°34' E 122°15'3 4.7
2017-Nov-23 20:51N 30°33' E 122°18'4 8.7
2017-Nov-23 20:23N 30°32' E 122°23'410.3
2017-Nov-23 20:00N 30°31' E 122°27'  
2017-Nov-17 19:28N 22°18' E 115°45'917.9
2017-Nov-17 18:56N 22°18' E 115°35'1117.8
2017-Nov-17 18:18N 22°17' E 115°22'517.4
2017-Nov-17 18:00N 22°17' E 115°17'917.6
2017-Nov-17 17:30N 22°17' E 115°07'917.6
2017-Nov-17 17:01N 22°16' E 114°58'917.3
2017-Nov-17 16:30N 22°17' E 114°49'917.7
2017-Nov-17 16:01N 22°18' E 114°39'917.1
2017-Nov-17 15:31N 22°20' E 114°30'815.6
2017-Nov-17 15:01N 22°27' E 114°28'4 8.9
2017-Nov-17 14:31N 22°30' E 114°25'713.5
2017-Nov-17 14:00N 22°34' E 114°18'1 2.5
2017-Nov-17 13:29N 22°34' E 114°17'0 0.0
2017-Nov-17 12:59N 22°34' E 114°17'0 0.0
2017-Nov-17 12:29N 22°34' E 114°17'0 0.0
2017-Nov-17 11:59N 22°34' E 114°17'0 0.0
2017-Nov-17 11:29N 22°34' E 114°17'0 0.0
2017-Nov-17 10:59N 22°34' E 114°17'0 0.1
2017-Nov-17 10:29N 22°34' E 114°17'0 0.1
2017-Nov-17 09:59N 22°34' E 114°17'0 0.0
2017-Nov-17 09:29N 22°34' E 114°17'0 0.0
2017-Nov-17 08:59N 22°34' E 114°17'0 0.0
2017-Nov-17 08:29N 22°34' E 114°17'0 0.0
2017-Nov-17 07:59N 22°34' E 114°17'0 0.1
2017-Nov-17 07:29N 22°34' E 114°17'0 0.1
2017-Nov-17 06:59N 22°34' E 114°17'0 0.0
2017-Nov-17 06:29N 22°34' E 114°17'0 0.0
2017-Nov-17 05:59N 22°34' E 114°17'0 0.0
2017-Nov-17 05:26N 22°34' E 114°17'0 0.0
2017-Nov-17 04:59N 22°34' E 114°17'0 0.0
2017-Nov-17 04:29N 22°34' E 114°17'0 0.0
2017-Nov-17 03:59N 22°34' E 114°17'0 0.0
2017-Nov-17 03:29N 22°34' E 114°17'0 0.0
2017-Nov-17 02:59N 22°34' E 114°17'0 0.0
2017-Nov-17 02:29N 22°34' E 114°17'0 0.0
2017-Nov-17 01:59N 22°34' E 114°17'0 0.0
2017-Nov-17 01:29N 22°34' E 114°17'0 0.0
2017-Nov-17 00:59N 22°34' E 114°17'0 0.0
2017-Nov-17 00:29N 22°34' E 114°17'0 0.0
2017-Nov-16 23:59N 22°34' E 114°17'0 0.0
2017-Nov-16 23:29N 22°34' E 114°17'0 0.0
2017-Nov-16 22:59N 22°34' E 114°17'0 0.0
2017-Nov-16 22:29N 22°34' E 114°17'0 0.0
2017-Nov-16 21:59N 22°34' E 114°17'0 0.0
2017-Nov-16 21:29N 22°34' E 114°17'0 0.0
2017-Nov-16 20:59N 22°34' E 114°17'0 0.0
2017-Nov-16 20:29N 22°34' E 114°17'0 0.0
2017-Nov-16 19:59N 22°34' E 114°17'0 0.0
2017-Nov-16 19:29N 22°34' E 114°17'0 0.0
2017-Nov-16 18:59N 22°34' E 114°17'0 0.0
2017-Nov-16 18:29N 22°34' E 114°17'0 0.0
2017-Nov-16 17:59N 22°34' E 114°17'0 0.0
2017-Nov-16 17:29N 22°34' E 114°17'0 0.0
2017-Nov-16 16:59N 22°34' E 114°17'0 0.0
2017-Nov-16 16:29N 22°34' E 114°17'0 0.0
2017-Nov-16 15:59N 22°34' E 114°17'0 0.0
2017-Nov-16 15:29N 22°34' E 114°17'0 0.0
2017-Nov-16 14:59N 22°34' E 114°17'0 0.0
2017-Nov-16 14:29N 22°34' E 114°17'0 0.0
2017-Nov-16 13:59N 22°34' E 114°17'0 0.0
2017-Nov-16 13:29N 22°34' E 114°17'0 0.0
2017-Nov-16 12:59N 22°34' E 114°17'0 0.0
2017-Nov-16 12:26N 22°34' E 114°17'0 0.0
2017-Nov-16 11:59N 22°34' E 114°17'0 0.0
2017-Nov-16 11:29N 22°34' E 114°17'0 0.0
2017-Nov-16 10:59N 22°34' E 114°17'0 0.0
2017-Nov-16 10:29N 22°34' E 114°17'0 0.0
2017-Nov-16 09:59N 22°34' E 114°17'0 0.0
2017-Nov-16 09:29N 22°34' E 114°17'0 0.0
2017-Nov-16 08:59N 22°34' E 114°17'0 0.0
2017-Nov-16 08:30N 22°34' E 114°17'0 0.8
2017-Nov-16 08:01N 22°34' E 114°17'4 8.7
2017-Nov-16 07:31N 22°33' E 114°22'612.4
2017-Nov-16 07:00N 22°29' E 114°26'510.6
2017-Nov-16 06:30N 22°23' E 114°27'5 9.5
2017-Nov-16 06:00N 22°18' E 114°27'611.0
2017-Nov-16 05:30N 22°13' E 114°25'612.7
2017-Nov-16 05:00N 22°08' E 114°22'612.0
2017-Nov-16 04:30N 22°07' E 114°15'612.4
2017-Nov-16 04:00N 22°12' E 114°11'510.2
2017-Nov-16 03:30N 22°15' E 114°07'5 8.9
2017-Nov-16 02:57N 22°20' E 114°07'1 0.0
2017-Nov-15 01:43N 22°21' E 114°07'0 0.0
2017-Nov-15 01:24N 22°21' E 114°07'1 1.2
2017-Nov-15 00:54N 22°20' E 114°07'2 5.3
2017-Nov-15 00:28N 22°18' E 114°06'613.1
2017-Nov-15 00:00N 22°13' E 114°10'4 7.6
2017-Nov-14 23:29N 22°10' E 114°12'4 8.6
2017-Nov-14 23:00N 22°08' E 114°16'5 9.5
2017-Nov-14 22:30N 22°08' E 114°21'5 9.5
2017-Nov-14 22:00N 22°04' E 114°24'612.9
2017-Nov-14 21:30N 21°58' E 114°25'713.4
2017-Nov-14 21:00N 21°52' E 114°21'713.5
2017-Nov-14 20:30N 21°46' E 114°18'  

Dump ship's entire track history